YMML Airport Information

Runway Information
Runway 09 Length 7500 ft width 148 ft
Elevation 395 ft Threshold 0 ft Heading 94
Runway 27 Length 7500 ft Width 148 ft
Elevation 407 ft Threshold 0 ft Heading 274
Runway 16 Length 11998 ft width 197 ft
Elevation 432 ft Threshold 0 ft Heading 171
Runway 34 Length 11998 ft Width 197 ft
Elevation 330 ft Threshold 0 ft Heading 351
Airport Frequencies
Type APP Name APP Frequency 132 MHZ
Type ATIS Name ATIS Frequency 114.1 MHZ
Type CLD Name CLNC DEL Frequency 127.2 MHZ
Type DEP Name DEP Frequency 118.9 MHZ
Type GND Name GND Frequency 121.7 MHZ
Type TWR Name TWR Frequency 120.5 MHZ
Airport Navaids
Type NDB Name Bolinda Frequency 362 KHZ
Type NDB Name Epping Frequency 377 KHZ
Type VOR-DME Name Melbourne Frequency 114100 KHZ
Type NDB Name Rockdale Frequency 338 KHZ
Airport Weather Information & NOTAM
ADDS - METARS form results

(0441 UTC 16 October 2021)
Data provider http://aviationweather.gov/metar/data/
 
METAR text: YMML 160434Z 25016G27KT 9999 -SHRA BKN024 14/09 Q1010
Conditions at: YMML (MELBOURNE INTL A, AU) observed 0434 UTC 16 October 2021
Temperature: 14.0°C (57°F)
Dewpoint: 9.0°C (48°F) [RH = 72%]
Pressure (altimeter): 29.82 inches Hg (1010.0 mb)
Winds: from the WSW (250 degrees) at 18 MPH (16 knots; 8.2 m/s)
gusting to 31 MPH (27 knots; 13.9 m/s)
Visibility: 6 or more miles (10+ km)
Ceiling: 2400 feet AGL
Clouds: broken clouds at 2400 feet AGL
Weather: -SHRA  (light rain showers)

METAR text: YMML 160430Z 25017KT 9999 VCSH BKN025 16/11 Q1010
Conditions at: YMML (MELBOURNE INTL A, AU) observed 0430 UTC 16 October 2021
Temperature: 16.0°C (61°F)
Dewpoint: 11.0°C (52°F) [RH = 72%]
Pressure (altimeter): 29.82 inches Hg (1010.0 mb)
Winds: from the WSW (250 degrees) at 20 MPH (17 knots; 8.7 m/s)
Visibility: 6 or more miles (10+ km)
Ceiling: 2500 feet AGL
Clouds: broken clouds at 2500 feet AGL
Weather: VCSH  (showers in vicinity)

METAR text: YMML 160409Z 23016G28KT 9999 -SHRA BKN030 SCT049 13/09 Q1010
Conditions at: YMML (MELBOURNE INTL A, AU) observed 0409 UTC 16 October 2021
Temperature: 13.0°C (55°F)
Dewpoint: 9.0°C (48°F) [RH = 77%]
Pressure (altimeter): 29.82 inches Hg (1010.0 mb)
Winds: from the SW (230 degrees) at 18 MPH (16 knots; 8.2 m/s)
gusting to 32 MPH (28 knots; 14.4 m/s)
Visibility: 6 or more miles (10+ km)
Ceiling: 3000 feet AGL
Clouds: broken clouds at 3000 feet AGL
scattered clouds at 4900 feet AGL
Weather: -SHRA  (light rain showers)

METAR text: YMML 160400Z 22012KT 9999 -SHRA BKN030 SCT049 15/09 Q1010
Conditions at: YMML (MELBOURNE INTL A, AU) observed 0400 UTC 16 October 2021
Temperature: 15.0°C (59°F)
Dewpoint: 9.0°C (48°F) [RH = 67%]
Pressure (altimeter): 29.82 inches Hg (1010.0 mb)
Winds: from the SW (220 degrees) at 14 MPH (12 knots; 6.2 m/s)
Visibility: 6 or more miles (10+ km)
Ceiling: 3000 feet AGL
Clouds: broken clouds at 3000 feet AGL
scattered clouds at 4900 feet AGL
Weather: -SHRA  (light rain showers)

Forecast for: YMML (MELBOURNE INTL A, AU)
Text: TAF YMML 160207Z 1603/1706 23016KT 9999 -SHRA SCT025 BKN045
Forecast period: 0300 to 0500 UTC 16 October 2021
Forecast type: FROM: standard forecast or significant change
Winds: from the SW (230 degrees) at 18 MPH (16 knots; 8.2 m/s)
Visibility: 6 or more miles (10+ km)
Ceiling: 4500 feet AGL
Clouds: scattered clouds at 2500 feet AGL
broken clouds at 4500 feet AGL
Weather: -SHRA  (light rain showers)
Text: FM160500 21013KT 9999 NSW FEW030 BKN050
Forecast period: 0500 to 0900 UTC 16 October 2021
Forecast type: FROM: standard forecast or significant change
Winds: from the SSW (210 degrees) at 15 MPH (13 knots; 6.7 m/s)
Visibility: 6 or more miles (10+ km)
Ceiling: 5000 feet AGL
Clouds: few clouds at 3000 feet AGL
broken clouds at 5000 feet AGL
Weather: NSW  (no significant weather)
Text: FM160900 25007KT 9999 FEW025 BKN040
Forecast period: 0900 to 1400 UTC 16 October 2021
Forecast type: FROM: standard forecast or significant change
Winds: from the WSW (250 degrees) at 8 MPH (7 knots; 3.6 m/s)
Visibility: 6 or more miles (10+ km)
Ceiling: 4000 feet AGL
Clouds: few clouds at 2500 feet AGL
broken clouds at 4000 feet AGL
Weather: no significant weather forecast for this period
Text: FM161400 30008KT 9999 FEW025 BKN035
Forecast period: 1400 UTC 16 October 2021 to 0400 UTC 17 October 2021
Forecast type: FROM: standard forecast or significant change
Winds: from the WNW (300 degrees) at 9 MPH (8 knots; 4.1 m/s)
Visibility: 6 or more miles (10+ km)
Ceiling: 3500 feet AGL
Clouds: few clouds at 2500 feet AGL
broken clouds at 3500 feet AGL
Weather: no significant weather forecast for this period
Text: FM170400 18008KT 9999 SCT040
Forecast period: 0400 to 0600 UTC 17 October 2021
Forecast type: FROM: standard forecast or significant change
Winds: from the S (180 degrees) at 9 MPH (8 knots; 4.1 m/s)
Visibility: 6 or more miles (10+ km)
Ceiling: at least 12,000 feet AGL
Clouds: scattered clouds at 4000 feet AGL
Weather: no significant weather forecast for this period